sensor_id;sensor_type;location;lat;lon;timestamp;pressure;altitude;pressure_sealevel;temperature;humidity
77011;BME280;65945;53.148;17.956;2024-01-30T00:00:44;102649.58;;;-2.83;91.88
77011;BME280;65945;53.148;17.956;2024-01-30T00:03:31;102652.41;;;-2.84;92.07
77011;BME280;65945;53.148;17.956;2024-01-30T00:05:58;102648.26;;;-2.84;92.16
77011;BME280;65945;53.148;17.956;2024-01-30T00:08:24;102647.17;;;-2.84;91.98
77011;BME280;65945;53.148;17.956;2024-01-30T00:10:51;102647.61;;;-2.85;92.01
77011;BME280;65945;53.148;17.956;2024-01-30T00:13:17;102651.62;;;-2.86;91.94
77011;BME280;65945;53.148;17.956;2024-01-30T00:15:46;102650.17;;;-2.87;91.96
77011;BME280;65945;53.148;17.956;2024-01-30T00:18:12;102649.05;;;-2.88;92.00
77011;BME280;65945;53.148;17.956;2024-01-30T00:20:39;102650.41;;;-2.88;91.93
77011;BME280;65945;53.148;17.956;2024-01-30T00:23:06;102645.68;;;-2.89;92.04
77011;BME280;65945;53.148;17.956;2024-01-30T00:25:32;102643.27;;;-2.90;92.08
77011;BME280;65945;53.148;17.956;2024-01-30T00:28:00;102645.61;;;-2.91;92.02
77011;BME280;65945;53.148;17.956;2024-01-30T00:30:26;102642.81;;;-2.94;91.78
77011;BME280;65945;53.148;17.956;2024-01-30T00:32:53;102646.77;;;-2.96;91.85
77011;BME280;65945;53.148;17.956;2024-01-30T00:35:20;102642.02;;;-2.96;92.15
77011;BME280;65945;53.148;17.956;2024-01-30T00:37:48;102642.09;;;-2.95;92.48
77011;BME280;65945;53.148;17.956;2024-01-30T00:40:15;102641.16;;;-2.95;92.41
77011;BME280;65945;53.148;17.956;2024-01-30T00:42:42;102640.65;;;-2.95;92.39
77011;BME280;65945;53.148;17.956;2024-01-30T00:45:15;102642.27;;;-2.96;92.26
77011;BME280;65945;53.148;17.956;2024-01-30T00:47:43;102642.02;;;-2.97;92.14
77011;BME280;65945;53.148;17.956;2024-01-30T00:50:11;102638.80;;;-2.98;92.32
77011;BME280;65945;53.148;17.956;2024-01-30T00:52:37;102642.84;;;-2.99;92.18
77011;BME280;65945;53.148;17.956;2024-01-30T00:55:05;102643.73;;;-3.01;92.18
77011;BME280;65945;53.148;17.956;2024-01-30T00:57:32;102639.60;;;-3.01;92.37
77011;BME280;65945;53.148;17.956;2024-01-30T00:59:59;102640.12;;;-3.01;92.24
77011;BME280;65945;53.148;17.956;2024-01-30T01:02:25;102638.55;;;-3.02;92.23
77011;BME280;65945;53.148;17.956;2024-01-30T01:04:52;102636.27;;;-3.03;92.40
77011;BME280;65945;53.148;17.956;2024-01-30T01:07:18;102635.45;;;-3.02;92.28
77011;BME280;65945;53.148;17.956;2024-01-30T01:09:45;102634.69;;;-3.02;92.50
77011;BME280;65945;53.148;17.956;2024-01-30T01:12:11;102629.61;;;-3.02;92.46
77011;BME280;65945;53.148;17.956;2024-01-30T01:14:38;102625.07;;;-3.03;92.38
77011;BME280;65945;53.148;17.956;2024-01-30T01:17:05;102630.83;;;-3.03;92.39
77011;BME280;65945;53.148;17.956;2024-01-30T01:19:31;102625.30;;;-3.06;92.30
77011;BME280;65945;53.148;17.956;2024-01-30T01:21:58;102627.80;;;-3.08;92.23
77011;BME280;65945;53.148;17.956;2024-01-30T01:24:24;102632.80;;;-3.08;92.28
77011;BME280;65945;53.148;17.956;2024-01-30T01:26:51;102629.58;;;-3.08;92.53
77011;BME280;65945;53.148;17.956;2024-01-30T01:29:18;102625.73;;;-3.05;92.74
77011;BME280;65945;53.148;17.956;2024-01-30T01:31:44;102624.83;;;-3.02;92.91
77011;BME280;65945;53.148;17.956;2024-01-30T01:34:12;102630.14;;;-3.03;92.77
77011;BME280;65945;53.148;17.956;2024-01-30T01:36:39;102633.38;;;-3.04;92.68
77011;BME280;65945;53.148;17.956;2024-01-30T01:39:06;102632.88;;;-3.03;92.89
77011;BME280;65945;53.148;17.956;2024-01-30T01:41:32;102631.02;;;-3.02;92.80
77011;BME280;65945;53.148;17.956;2024-01-30T01:43:59;102631.95;;;-3.01;92.82
77011;BME280;65945;53.148;17.956;2024-01-30T01:46:27;102627.45;;;-3.04;92.70
77011;BME280;65945;53.148;17.956;2024-01-30T01:48:56;102623.65;;;-3.05;92.63
77011;BME280;65945;53.148;17.956;2024-01-30T01:51:24;102624.37;;;-3.05;92.64
77011;BME280;65945;53.148;17.956;2024-01-30T01:53:54;102622.52;;;-3.06;92.68
77011;BME280;65945;53.148;17.956;2024-01-30T01:56:22;102623.18;;;-3.07;92.56
77011;BME280;65945;53.148;17.956;2024-01-30T01:58:51;102621.08;;;-3.08;92.58
77011;BME280;65945;53.148;17.956;2024-01-30T02:01:21;102622.21;;;-3.10;92.51
77011;BME280;65945;53.148;17.956;2024-01-30T02:03:47;102624.73;;;-3.12;92.42
77011;BME280;65945;53.148;17.956;2024-01-30T02:06:14;102621.05;;;-3.14;92.43
77011;BME280;65945;53.148;17.956;2024-01-30T02:08:41;102621.30;;;-3.16;92.45
77011;BME280;65945;53.148;17.956;2024-01-30T02:11:09;102615.50;;;-3.17;92.46
77011;BME280;65945;53.148;17.956;2024-01-30T02:13:37;102617.45;;;-3.18;92.43
77011;BME280;65945;53.148;17.956;2024-01-30T02:16:04;102615.88;;;-3.20;92.20
77011;BME280;65945;53.148;17.956;2024-01-30T02:18:30;102619.74;;;-3.20;92.38
77011;BME280;65945;53.148;17.956;2024-01-30T02:20:58;102621.19;;;-3.20;92.44
77011;BME280;65945;53.148;17.956;2024-01-30T02:23:28;102621.58;;;-3.22;92.35
77011;BME280;65945;53.148;17.956;2024-01-30T02:25:54;102624.05;;;-3.24;92.26
77011;BME280;65945;53.148;17.956;2024-01-30T02:28:21;102621.52;;;-3.28;92.01
77011;BME280;65945;53.148;17.956;2024-01-30T02:30:48;102616.90;;;-3.29;92.07
77011;BME280;65945;53.148;17.956;2024-01-30T02:33:14;102615.10;;;-3.30;92.02
77011;BME280;65945;53.148;17.956;2024-01-30T02:35:41;102612.74;;;-3.33;92.07
77011;BME280;65945;53.148;17.956;2024-01-30T02:38:08;102612.14;;;-3.34;92.06
77011;BME280;65945;53.148;17.956;2024-01-30T02:40:34;102610.94;;;-3.34;92.14
77011;BME280;65945;53.148;17.956;2024-01-30T02:43:02;102610.85;;;-3.33;92.35
77011;BME280;65945;53.148;17.956;2024-01-30T02:45:29;102611.21;;;-3.32;92.28
77011;BME280;65945;53.148;17.956;2024-01-30T02:47:55;102609.98;;;-3.31;92.43
77011;BME280;65945;53.148;17.956;2024-01-30T02:50:22;102607.65;;;-3.31;92.46
77011;BME280;65945;53.148;17.956;2024-01-30T02:52:49;102603.14;;;-3.30;92.42
77011;BME280;65945;53.148;17.956;2024-01-30T02:55:15;102602.26;;;-3.28;92.47
77011;BME280;65945;53.148;17.956;2024-01-30T02:57:45;102598.11;;;-3.28;92.41
77011;BME280;65945;53.148;17.956;2024-01-30T03:00:12;102599.29;;;-3.29;92.24
77011;BME280;65945;53.148;17.956;2024-01-30T03:02:39;102598.55;;;-3.29;92.20
77011;BME280;65945;53.148;17.956;2024-01-30T03:05:07;102594.28;;;-3.28;92.29
77011;BME280;65945;53.148;17.956;2024-01-30T03:07:34;102597.86;;;-3.28;92.25
77011;BME280;65945;53.148;17.956;2024-01-30T03:10:00;102600.55;;;-3.27;92.25
77011;BME280;65945;53.148;17.956;2024-01-30T03:12:27;102598.50;;;-3.26;92.24
77011;BME280;65945;53.148;17.956;2024-01-30T03:14:54;102608.07;;;-3.27;92.07
77011;BME280;65945;53.148;17.956;2024-01-30T03:17:20;102608.51;;;-3.27;92.12
77011;BME280;65945;53.148;17.956;2024-01-30T03:19:47;102611.94;;;-3.28;92.11
77011;BME280;65945;53.148;17.956;2024-01-30T03:22:14;102609.73;;;-3.28;92.13
77011;BME280;65945;53.148;17.956;2024-01-30T03:24:40;102611.75;;;-3.29;91.93
77011;BME280;65945;53.148;17.956;2024-01-30T03:27:08;102613.84;;;-3.29;91.94
77011;BME280;65945;53.148;17.956;2024-01-30T03:29:34;102606.98;;;-3.28;92.11
77011;BME280;65945;53.148;17.956;2024-01-30T03:32:01;102605.27;;;-3.28;91.99
77011;BME280;65945;53.148;17.956;2024-01-30T03:34:28;102606.08;;;-3.28;92.22
77011;BME280;65945;53.148;17.956;2024-01-30T03:36:54;102606.02;;;-3.28;92.07
77011;BME280;65945;53.148;17.956;2024-01-30T03:39:21;102609.33;;;-3.28;92.24
77011;BME280;65945;53.148;17.956;2024-01-30T03:41:48;102606.34;;;-3.27;92.25
77011;BME280;65945;53.148;17.956;2024-01-30T03:44:14;102605.86;;;-3.26;92.28
77011;BME280;65945;53.148;17.956;2024-01-30T03:46:41;102599.85;;;-3.26;92.30
77011;BME280;65945;53.148;17.956;2024-01-30T03:49:07;102602.20;;;-3.25;92.35
77011;BME280;65945;53.148;17.956;2024-01-30T03:51:34;102599.94;;;-3.25;92.47
77011;BME280;65945;53.148;17.956;2024-01-30T03:54:00;102602.46;;;-3.24;92.24
77011;BME280;65945;53.148;17.956;2024-01-30T03:56:27;102604.69;;;-3.26;92.22
77011;BME280;65945;53.148;17.956;2024-01-30T03:58:53;102599.54;;;-3.26;92.19
77011;BME280;65945;53.148;17.956;2024-01-30T04:01:20;102599.85;;;-3.26;92.21
77011;BME280;65945;53.148;17.956;2024-01-30T04:03:47;102597.41;;;-3.26;92.39
77011;BME280;65945;53.148;17.956;2024-01-30T04:06:13;102595.23;;;-3.25;92.36
77011;BME280;65945;53.148;17.956;2024-01-30T04:08:40;102597.11;;;-3.24;92.31
77011;BME280;65945;53.148;17.956;2024-01-30T04:11:07;102598.10;;;-3.22;92.22
77011;BME280;65945;53.148;17.956;2024-01-30T04:13:33;102599.10;;;-3.21;92.40
77011;BME280;65945;53.148;17.956;2024-01-30T04:16:00;102600.61;;;-3.20;92.44
77011;BME280;65945;53.148;17.956;2024-01-30T04:18:30;102602.23;;;-3.19;92.40
77011;BME280;65945;53.148;17.956;2024-01-30T04:20:56;102594.34;;;-3.19;92.37
77011;BME280;65945;53.148;17.956;2024-01-30T04:23:23;102598.40;;;-3.18;92.30
77011;BME280;65945;53.148;17.956;2024-01-30T04:25:49;102596.13;;;-3.17;92.27
77011;BME280;65945;53.148;17.956;2024-01-30T04:28:16;102595.37;;;-3.16;92.44
77011;BME280;65945;53.148;17.956;2024-01-30T04:30:42;102596.58;;;-3.15;92.44
77011;BME280;65945;53.148;17.956;2024-01-30T04:33:10;102596.02;;;-3.14;92.48
77011;BME280;65945;53.148;17.956;2024-01-30T04:35:37;102595.75;;;-3.13;92.39
77011;BME280;65945;53.148;17.956;2024-01-30T04:38:04;102598.92;;;-3.12;92.59
77011;BME280;65945;53.148;17.956;2024-01-30T04:40:31;102599.38;;;-3.10;92.40
77011;BME280;65945;53.148;17.956;2024-01-30T04:42:58;102603.17;;;-3.08;92.43
77011;BME280;65945;53.148;17.956;2024-01-30T04:45:25;102604.23;;;-3.06;92.39
77011;BME280;65945;53.148;17.956;2024-01-30T04:47:51;102602.38;;;-3.04;92.78
77011;BME280;65945;53.148;17.956;2024-01-30T04:50:18;102605.80;;;-3.01;92.55
77011;BME280;65945;53.148;17.956;2024-01-30T04:52:45;102606.40;;;-2.99;92.69
77011;BME280;65945;53.148;17.956;2024-01-30T04:55:12;102606.63;;;-2.97;92.68
77011;BME280;65945;53.148;17.956;2024-01-30T04:57:38;102611.20;;;-2.95;92.73
77011;BME280;65945;53.148;17.956;2024-01-30T05:00:06;102611.02;;;-2.94;92.65
77011;BME280;65945;53.148;17.956;2024-01-30T05:02:32;102613.48;;;-2.93;92.67
77011;BME280;65945;53.148;17.956;2024-01-30T05:04:59;102611.29;;;-2.91;92.53
77011;BME280;65945;53.148;17.956;2024-01-30T05:07:26;102610.83;;;-2.89;92.81
77011;BME280;65945;53.148;17.956;2024-01-30T05:09:52;102608.55;;;-2.86;92.67
77011;BME280;65945;53.148;17.956;2024-01-30T05:12:20;102604.35;;;-2.84;92.67
77011;BME280;65945;53.148;17.956;2024-01-30T05:14:47;102600.73;;;-2.82;92.68
77011;BME280;65945;53.148;17.956;2024-01-30T05:17:14;102600.06;;;-2.80;92.54
77011;BME280;65945;53.148;17.956;2024-01-30T05:19:40;102594.48;;;-2.81;92.29
77011;BME280;65945;53.148;17.956;2024-01-30T05:22:07;102595.86;;;-2.80;92.35
77011;BME280;65945;53.148;17.956;2024-01-30T05:24:33;102599.44;;;-2.80;92.38
77011;BME280;65945;53.148;17.956;2024-01-30T05:27:00;102600.23;;;-2.79;92.35
77011;BME280;65945;53.148;17.956;2024-01-30T05:29:27;102598.54;;;-2.78;92.45
77011;BME280;65945;53.148;17.956;2024-01-30T05:31:53;102599.22;;;-2.77;92.46
77011;BME280;65945;53.148;17.956;2024-01-30T05:34:20;102594.23;;;-2.75;92.46
77011;BME280;65945;53.148;17.956;2024-01-30T05:36:47;102596.12;;;-2.74;92.44
77011;BME280;65945;53.148;17.956;2024-01-30T05:39:13;102591.64;;;-2.73;92.47
77011;BME280;65945;53.148;17.956;2024-01-30T05:41:40;102591.44;;;-2.73;92.31
77011;BME280;65945;53.148;17.956;2024-01-30T05:44:06;102589.19;;;-2.73;92.37
77011;BME280;65945;53.148;17.956;2024-01-30T05:46:33;102597.56;;;-2.73;92.21
77011;BME280;65945;53.148;17.956;2024-01-30T05:49:00;102599.98;;;-2.73;92.45
77011;BME280;65945;53.148;17.956;2024-01-30T05:51:26;102596.80;;;-2.72;92.59
77011;BME280;65945;53.148;17.956;2024-01-30T05:53:54;102603.04;;;-2.72;92.61
77011;BME280;65945;53.148;17.956;2024-01-30T05:56:21;102604.81;;;-2.72;92.36
77011;BME280;65945;53.148;17.956;2024-01-30T05:58:47;102607.45;;;-2.71;92.67
77011;BME280;65945;53.148;17.956;2024-01-30T06:01:14;102611.48;;;-2.71;92.47
77011;BME280;65945;53.148;17.956;2024-01-30T06:03:40;102616.04;;;-2.71;92.61
77011;BME280;65945;53.148;17.956;2024-01-30T06:06:07;102614.39;;;-2.71;92.50
77011;BME280;65945;53.148;17.956;2024-01-30T06:08:33;102614.39;;;-2.71;92.54
77011;BME280;65945;53.148;17.956;2024-01-30T06:11:00;102611.05;;;-2.71;92.39
77011;BME280;65945;53.148;17.956;2024-01-30T06:13:27;102609.76;;;-2.70;92.61
77011;BME280;65945;53.148;17.956;2024-01-30T06:15:54;102616.20;;;-2.69;92.57
77011;BME280;65945;53.148;17.956;2024-01-30T06:18:20;102615.73;;;-2.67;92.75
77011;BME280;65945;53.148;17.956;2024-01-30T06:20:47;102619.79;;;-2.66;92.67
77011;BME280;65945;53.148;17.956;2024-01-30T06:23:14;102616.40;;;-2.65;92.65
77011;BME280;65945;53.148;17.956;2024-01-30T06:25:41;102621.02;;;-2.65;92.69
77011;BME280;65945;53.148;17.956;2024-01-30T06:28:07;102618.83;;;-2.65;92.67
77011;BME280;65945;53.148;17.956;2024-01-30T06:30:34;102617.71;;;-2.63;92.80
77011;BME280;65945;53.148;17.956;2024-01-30T06:33:01;102616.30;;;-2.63;92.74
77011;BME280;65945;53.148;17.956;2024-01-30T06:35:27;102620.05;;;-2.63;92.83
77011;BME280;65945;53.148;17.956;2024-01-30T06:37:55;102622.05;;;-2.61;92.87
77011;BME280;65945;53.148;17.956;2024-01-30T06:40:22;102619.66;;;-2.60;92.75
77011;BME280;65945;53.148;17.956;2024-01-30T06:42:48;102616.66;;;-2.59;92.82
77011;BME280;65945;53.148;17.956;2024-01-30T06:45:15;102615.11;;;-2.56;92.88
77011;BME280;65945;53.148;17.956;2024-01-30T06:47:42;102612.41;;;-2.56;92.81
77011;BME280;65945;53.148;17.956;2024-01-30T06:50:08;102614.01;;;-2.55;92.54
77011;BME280;65945;53.148;17.956;2024-01-30T06:52:35;102617.13;;;-2.52;92.70
77011;BME280;65945;53.148;17.956;2024-01-30T06:55:02;102616.27;;;-2.50;92.75
77011;BME280;65945;53.148;17.956;2024-01-30T06:57:29;102621.05;;;-2.48;92.62
77011;BME280;65945;53.148;17.956;2024-01-30T06:59:57;102621.35;;;-2.46;92.60
77011;BME280;65945;53.148;17.956;2024-01-30T07:02:23;102622.38;;;-2.44;92.70
77011;BME280;65945;53.148;17.956;2024-01-30T07:04:50;102626.27;;;-2.42;92.87
77011;BME280;65945;53.148;17.956;2024-01-30T07:07:17;102621.70;;;-2.40;92.72
77011;BME280;65945;53.148;17.956;2024-01-30T07:09:44;102627.02;;;-2.37;92.95
77011;BME280;65945;53.148;17.956;2024-01-30T07:12:11;102629.93;;;-2.34;92.90
77011;BME280;65945;53.148;17.956;2024-01-30T07:14:37;102629.86;;;-2.30;92.88
77011;BME280;65945;53.148;17.956;2024-01-30T07:17:04;102625.55;;;-2.27;93.02
77011;BME280;65945;53.148;17.956;2024-01-30T07:19:30;102627.12;;;-2.22;93.02
77011;BME280;65945;53.148;17.956;2024-01-30T07:21:57;102626.77;;;-2.18;93.15
77011;BME280;65945;53.148;17.956;2024-01-30T07:24:24;102623.16;;;-2.14;93.19
77011;BME280;65945;53.148;17.956;2024-01-30T07:26:50;102624.20;;;-2.09;93.11
77011;BME280;65945;53.148;17.956;2024-01-30T07:29:17;102625.84;;;-2.03;93.13
77011;BME280;65945;53.148;17.956;2024-01-30T07:31:44;102621.58;;;-1.98;93.14
77011;BME280;65945;53.148;17.956;2024-01-30T07:34:11;102622.90;;;-1.92;93.21
77011;BME280;65945;53.148;17.956;2024-01-30T07:36:38;102625.77;;;-1.87;92.85
77011;BME280;65945;53.148;17.956;2024-01-30T07:39:05;102627.45;;;-1.82;93.13
77011;BME280;65945;53.148;17.956;2024-01-30T07:41:31;102626.90;;;-1.77;92.95
77011;BME280;65945;53.148;17.956;2024-01-30T07:43:58;102623.27;;;-1.71;93.08
77011;BME280;65945;53.148;17.956;2024-01-30T07:46:25;102628.04;;;-1.64;93.08
77011;BME280;65945;53.148;17.956;2024-01-30T07:48:51;102626.17;;;-1.58;93.20
77011;BME280;65945;53.148;17.956;2024-01-30T07:51:18;102627.88;;;-1.51;92.95
77011;BME280;65945;53.148;17.956;2024-01-30T07:53:44;102629.95;;;-1.44;93.17
77011;BME280;65945;53.148;17.956;2024-01-30T07:56:11;102630.33;;;-1.38;93.11
77011;BME280;65945;53.148;17.956;2024-01-30T07:58:38;102627.79;;;-1.33;92.93
77011;BME280;65945;53.148;17.956;2024-01-30T08:01:04;102632.88;;;-1.27;92.84
77011;BME280;65945;53.148;17.956;2024-01-30T08:03:31;102633.40;;;-1.21;92.94
77011;BME280;65945;53.148;17.956;2024-01-30T08:05:58;102635.43;;;-1.16;92.89
77011;BME280;65945;53.148;17.956;2024-01-30T08:08:24;102644.10;;;-1.09;92.74
77011;BME280;65945;53.148;17.956;2024-01-30T08:10:52;102638.62;;;-1.02;92.98
77011;BME280;65945;53.148;17.956;2024-01-30T08:13:18;102643.59;;;-0.94;93.01
77011;BME280;65945;53.148;17.956;2024-01-30T08:15:45;102642.23;;;-0.87;93.13
77011;BME280;65945;53.148;17.956;2024-01-30T08:18:12;102639.76;;;-0.79;92.87
77011;BME280;65945;53.148;17.956;2024-01-30T08:20:38;102637.55;;;-0.70;93.21
77011;BME280;65945;53.148;17.956;2024-01-30T08:23:05;102644.03;;;-0.61;92.95
77011;BME280;65945;53.148;17.956;2024-01-30T08:25:32;102634.38;;;-0.52;93.06
77011;BME280;65945;53.148;17.956;2024-01-30T08:27:58;102637.42;;;-0.40;93.30
77011;BME280;65945;53.148;17.956;2024-01-30T08:30:26;102636.77;;;-0.30;93.15
77011;BME280;65945;53.148;17.956;2024-01-30T08:32:54;102634.71;;;-0.18;93.05
77011;BME280;65945;53.148;17.956;2024-01-30T08:35:20;102635.80;;;-0.07;93.17
77011;BME280;65945;53.148;17.956;2024-01-30T08:37:47;102640.05;;;0.06;93.21
77011;BME280;65945;53.148;17.956;2024-01-30T08:40:14;102633.93;;;0.17;92.95
77011;BME280;65945;53.148;17.956;2024-01-30T08:42:40;102631.23;;;0.30;93.16
77011;BME280;65945;53.148;17.956;2024-01-30T08:45:07;102632.59;;;0.42;93.13
77011;BME280;65945;53.148;17.956;2024-01-30T08:47:36;102631.27;;;0.56;92.83
77011;BME280;65945;53.148;17.956;2024-01-30T08:50:03;102630.60;;;0.71;92.67
77011;BME280;65945;53.148;17.956;2024-01-30T08:52:30;102624.96;;;0.86;92.70
77011;BME280;65945;53.148;17.956;2024-01-30T08:54:57;102626.20;;;1.02;92.51
77011;BME280;65945;53.148;17.956;2024-01-30T08:57:23;102627.79;;;1.19;92.66
77011;BME280;65945;53.148;17.956;2024-01-30T08:59:50;102625.66;;;1.35;92.45
77011;BME280;65945;53.148;17.956;2024-01-30T09:02:17;102621.77;;;1.49;92.29
77011;BME280;65945;53.148;17.956;2024-01-30T09:04:44;102617.55;;;1.60;92.17
77011;BME280;65945;53.148;17.956;2024-01-30T09:07:11;102619.67;;;1.72;91.79
77011;BME280;65945;53.148;17.956;2024-01-30T09:09:40;102620.73;;;1.84;91.61
77011;BME280;65945;53.148;17.956;2024-01-30T09:12:08;102617.73;;;1.97;91.38
77011;BME280;65945;53.148;17.956;2024-01-30T09:14:39;102616.53;;;2.11;91.44
77011;BME280;65945;53.148;17.956;2024-01-30T09:17:06;102617.39;;;2.24;91.31
77011;BME280;65945;53.148;17.956;2024-01-30T09:19:33;102614.67;;;2.36;90.94
77011;BME280;65945;53.148;17.956;2024-01-30T09:22:00;102610.48;;;2.49;90.65
77011;BME280;65945;53.148;17.956;2024-01-30T09:24:27;102607.61;;;2.62;90.42
77011;BME280;65945;53.148;17.956;2024-01-30T09:26:53;102607.15;;;2.75;89.98
77011;BME280;65945;53.148;17.956;2024-01-30T09:29:21;102608.39;;;2.88;89.73
77011;BME280;65945;53.148;17.956;2024-01-30T09:31:48;102613.53;;;3.01;89.29
77011;BME280;65945;53.148;17.956;2024-01-30T09:34:14;102611.79;;;3.15;88.61
77011;BME280;65945;53.148;17.956;2024-01-30T09:36:41;102608.12;;;3.26;87.79
77011;BME280;65945;53.148;17.956;2024-01-30T09:39:08;102609.52;;;3.38;87.78
77011;BME280;65945;53.148;17.956;2024-01-30T09:41:45;102605.21;;;3.50;87.41
77011;BME280;65945;53.148;17.956;2024-01-30T09:44:16;102602.48;;;3.62;87.32
77011;BME280;65945;53.148;17.956;2024-01-30T09:46:43;102600.46;;;3.72;86.95
77011;BME280;65945;53.148;17.956;2024-01-30T09:49:12;102598.52;;;3.82;86.15
77011;BME280;65945;53.148;17.956;2024-01-30T09:51:40;102597.98;;;3.92;86.08
77011;BME280;65945;53.148;17.956;2024-01-30T09:54:08;102595.43;;;4.01;85.82
77011;BME280;65945;53.148;17.956;2024-01-30T09:56:34;102592.23;;;4.12;85.31
77011;BME280;65945;53.148;17.956;2024-01-30T09:59:01;102583.95;;;4.20;85.22
77011;BME280;65945;53.148;17.956;2024-01-30T10:01:28;102580.21;;;4.30;84.76
77011;BME280;65945;53.148;17.956;2024-01-30T10:03:55;102579.44;;;4.38;84.10
77011;BME280;65945;53.148;17.956;2024-01-30T10:06:22;102578.52;;;4.48;84.10
77011;BME280;65945;53.148;17.956;2024-01-30T10:08:51;102582.23;;;4.58;83.61
77011;BME280;65945;53.148;17.956;2024-01-30T10:11:17;102574.94;;;4.69;83.44
77011;BME280;65945;53.148;17.956;2024-01-30T10:13:44;102571.19;;;4.80;83.19
77011;BME280;65945;53.148;17.956;2024-01-30T10:16:13;102568.05;;;4.90;82.82
77011;BME280;65945;53.148;17.956;2024-01-30T10:18:41;102568.10;;;4.99;82.40
77011;BME280;65945;53.148;17.956;2024-01-30T10:21:11;102568.16;;;5.08;82.24
77011;BME280;65945;53.148;17.956;2024-01-30T10:23:38;102566.81;;;5.17;81.80
77011;BME280;65945;53.148;17.956;2024-01-30T10:26:04;102561.98;;;5.23;80.82
77011;BME280;65945;53.148;17.956;2024-01-30T10:28:33;102562.08;;;5.28;80.18
77011;BME280;65945;53.148;17.956;2024-01-30T10:31:00;102563.13;;;5.34;80.38
77011;BME280;65945;53.148;17.956;2024-01-30T10:33:27;102565.03;;;5.42;80.52
77011;BME280;65945;53.148;17.956;2024-01-30T10:36:05;102562.11;;;5.49;79.74
77011;BME280;65945;53.148;17.956;2024-01-30T10:38:32;102561.06;;;5.57;79.69
77011;BME280;65945;53.148;17.956;2024-01-30T10:41:00;102558.98;;;5.63;79.24
77011;BME280;65945;53.148;17.956;2024-01-30T10:43:40;102558.73;;;5.69;78.93
77011;BME280;65945;53.148;17.956;2024-01-30T10:46:16;102557.39;;;5.75;78.41
77011;BME280;65945;53.148;17.956;2024-01-30T10:48:50;102563.80;;;5.82;78.57
77011;BME280;65945;53.148;17.956;2024-01-30T10:51:18;102558.48;;;5.89;78.48
77011;BME280;65945;53.148;17.956;2024-01-30T10:53:46;102558.04;;;5.94;76.58
77011;BME280;65945;53.148;17.956;2024-01-30T10:56:13;102557.02;;;5.96;76.27
77011;BME280;65945;53.148;17.956;2024-01-30T10:58:40;102550.20;;;6.00;76.69
77011;BME280;65945;53.148;17.956;2024-01-30T11:01:08;102551.80;;;6.08;77.37
77011;BME280;65945;53.148;17.956;2024-01-30T11:03:36;102547.73;;;6.16;76.91
77011;BME280;65945;53.148;17.956;2024-01-30T11:06:03;102547.10;;;6.23;76.70
77011;BME280;65945;53.148;17.956;2024-01-30T11:08:32;102545.16;;;6.28;76.11
77011;BME280;65945;53.148;17.956;2024-01-30T11:10:58;102546.66;;;6.34;76.11
77011;BME280;65945;53.148;17.956;2024-01-30T11:13:31;102540.95;;;6.39;75.76
77011;BME280;65945;53.148;17.956;2024-01-30T11:16:05;102538.84;;;6.44;75.76
77011;BME280;65945;53.148;17.956;2024-01-30T11:18:33;102536.47;;;6.49;75.50
77011;BME280;65945;53.148;17.956;2024-01-30T11:21:04;102534.34;;;6.50;75.22
77011;BME280;65945;53.148;17.956;2024-01-30T11:23:33;102530.59;;;6.52;75.32
77011;BME280;65945;53.148;17.956;2024-01-30T11:26:00;102530.54;;;6.53;74.96
77011;BME280;65945;53.148;17.956;2024-01-30T11:28:32;102524.10;;;6.54;75.00
77011;BME280;65945;53.148;17.956;2024-01-30T11:31:06;102522.21;;;6.56;74.79
77011;BME280;65945;53.148;17.956;2024-01-30T11:33:33;102528.96;;;6.58;75.22
77011;BME280;65945;53.148;17.956;2024-01-30T11:36:01;102523.73;;;6.59;74.56
77011;BME280;65945;53.148;17.956;2024-01-30T11:38:33;102521.39;;;6.60;74.59
77011;BME280;65945;53.148;17.956;2024-01-30T11:41:00;102521.34;;;6.60;74.24
77011;BME280;65945;53.148;17.956;2024-01-30T11:43:27;102519.73;;;6.61;74.40
77011;BME280;65945;53.148;17.956;2024-01-30T11:45:53;102515.26;;;6.62;74.35
77011;BME280;65945;53.148;17.956;2024-01-30T11:48:20;102512.58;;;6.64;74.13
77011;BME280;65945;53.148;17.956;2024-01-30T11:50:47;102509.84;;;6.68;74.11
77011;BME280;65945;53.148;17.956;2024-01-30T11:53:14;102503.75;;;6.72;73.87
77011;BME280;65945;53.148;17.956;2024-01-30T11:55:40;102501.29;;;6.74;73.59
77011;BME280;65945;53.148;17.956;2024-01-30T11:58:07;102502.54;;;6.76;73.83
77011;BME280;65945;53.148;17.956;2024-01-30T12:00:34;102495.79;;;6.80;73.64
77011;BME280;65945;53.148;17.956;2024-01-30T12:03:00;102494.06;;;6.84;72.82
77011;BME280;65945;53.148;17.956;2024-01-30T12:05:29;102493.48;;;6.88;72.94
77011;BME280;65945;53.148;17.956;2024-01-30T12:07:56;102489.48;;;6.91;72.34
77011;BME280;65945;53.148;17.956;2024-01-30T12:10:25;102485.18;;;6.95;72.58
77011;BME280;65945;53.148;17.956;2024-01-30T12:12:53;102484.11;;;7.01;71.85
77011;BME280;65945;53.148;17.956;2024-01-30T12:15:21;102480.43;;;7.07;72.21
77011;BME280;65945;53.148;17.956;2024-01-30T12:17:48;102481.21;;;7.14;72.12
77011;BME280;65945;53.148;17.956;2024-01-30T12:20:18;102474.86;;;7.20;71.56
77011;BME280;65945;53.148;17.956;2024-01-30T12:22:49;102471.57;;;7.24;71.55
77011;BME280;65945;53.148;17.956;2024-01-30T12:25:17;102463.65;;;7.28;71.07
77011;BME280;65945;53.148;17.956;2024-01-30T12:27:46;102463.91;;;7.33;71.50
77011;BME280;65945;53.148;17.956;2024-01-30T12:30:17;102458.14;;;7.38;70.61
77011;BME280;65945;53.148;17.956;2024-01-30T12:32:45;102454.28;;;7.41;70.14
77011;BME280;65945;53.148;17.956;2024-01-30T12:35:14;102455.79;;;7.44;70.78
77011;BME280;65945;53.148;17.956;2024-01-30T12:37:44;102454.05;;;7.50;71.33
77011;BME280;65945;53.148;17.956;2024-01-30T12:40:12;102439.23;;;7.59;71.51
77011;BME280;65945;53.148;17.956;2024-01-30T12:42:41;102439.23;;;7.68;70.89